createdAt,value
2022-11-24T00:01:05.392Z,25
2022-11-24T00:16:04.442Z,25
2022-11-24T00:31:05.762Z,27
2022-11-24T00:46:05.532Z,27
2022-11-24T01:01:05.396Z,28
2022-11-24T01:16:05.237Z,30
2022-11-24T01:31:04.917Z,29
2022-11-24T01:46:05.237Z,26
2022-11-24T02:01:05.655Z,29
2022-11-24T02:16:05.638Z,34
2022-11-24T02:31:04.993Z,28
2022-11-24T02:46:05.539Z,30
2022-11-24T03:01:05.125Z,28
2022-11-24T03:16:05.688Z,23
2022-11-24T03:31:05.147Z,25
2022-11-24T03:46:05.684Z,24
2022-11-24T04:01:04.975Z,25
2022-11-24T04:16:05.605Z,25
2022-11-24T04:31:05.014Z,32
2022-11-24T04:46:05.585Z,46
2022-11-24T05:01:04.578Z,32
2022-11-24T05:16:05.075Z,32
2022-11-24T05:31:05.729Z,40
2022-11-24T05:46:05.117Z,29
2022-11-24T06:01:04.817Z,29
2022-11-24T06:16:05.674Z,30
2022-11-24T06:31:05.552Z,27
2022-11-24T06:46:04.561Z,27
2022-11-24T07:01:05.011Z,33
2022-11-24T07:16:05.601Z,36
2022-11-24T07:31:04.893Z,45
2022-11-24T07:46:05.556Z,42
2022-11-24T08:01:05.082Z,39
2022-11-24T08:16:04.938Z,52
2022-11-24T08:31:05.346Z,41
2022-11-24T08:46:05.384Z,42
2022-11-24T09:01:05.622Z,52
2022-11-24T09:16:04.814Z,43
2022-11-24T09:31:05.057Z,57
2022-11-24T09:46:06.415Z,55
2022-11-24T10:01:05.656Z,58
2022-11-24T10:16:05.387Z,54
2022-11-24T10:31:05.665Z,52
2022-11-24T10:46:04.973Z,58
2022-11-24T11:01:05.457Z,43
2022-11-24T11:16:04.854Z,53
2022-11-24T11:31:16.248Z,52
2022-11-24T11:46:04.650Z,39
2022-11-24T12:01:05.550Z,36
2022-11-24T12:16:04.970Z,45
2022-11-24T12:31:05.492Z,47
2022-11-24T12:46:05.242Z,54
2022-11-24T13:01:05.143Z,46
2022-11-24T13:16:35.520Z,58
2022-11-24T13:31:05.363Z,40
2022-11-24T13:46:04.523Z,44
2022-11-24T14:01:05.394Z,45
2022-11-24T14:16:05.327Z,74
2022-11-24T14:31:05.444Z,57
2022-11-24T14:46:04.444Z,55
2022-11-24T15:01:04.849Z,53
2022-11-24T15:16:05.604Z,43
2022-11-24T15:31:04.980Z,44
2022-11-24T15:46:04.709Z,46
2022-11-24T16:01:05.236Z,45
2022-11-24T16:16:05.034Z,47
2022-11-24T16:31:05.480Z,53
2022-11-24T16:46:05.526Z,61
2022-11-24T17:01:04.667Z,58
2022-11-24T17:16:05.122Z,55
2022-11-24T17:31:04.615Z,50
2022-11-24T17:46:05.142Z,68
2022-11-24T18:01:05.324Z,60
2022-11-24T18:16:05.508Z,63
2022-11-24T18:31:04.904Z,57
2022-11-24T18:46:05.182Z,96
2022-11-24T19:01:04.773Z,123
2022-11-24T19:16:04.985Z,102
2022-11-24T19:31:05.523Z,70
2022-11-24T19:46:04.703Z,56
2022-11-24T20:01:04.712Z,69
2022-11-24T20:16:04.766Z,57
2022-11-24T20:31:04.821Z,63
2022-11-24T20:46:05.109Z,74
2022-11-24T21:01:05.375Z,77
2022-11-24T21:16:05.048Z,61
2022-11-24T21:31:04.992Z,85
2022-11-24T21:46:05.780Z,88
2022-11-24T22:01:05.319Z,89
2022-11-24T22:16:04.581Z,85
2022-11-24T22:31:04.827Z,95
2022-11-24T22:46:05.541Z,99
2022-11-24T23:01:04.865Z,109
2022-11-24T23:16:05.122Z,104
2022-11-24T23:31:05.396Z,104
2022-11-24T23:46:04.469Z,99
